Time;durP1;ratioP1;P1;durP2;ratioP2;P2;SDS_P1;SDS_P2;PMS_P1;PMS_P2;Temp;Humidity;BMP_temperature;BMP_pressure;BME280_temperature;BME280_humidity;BME280_pressure;Samples;Min_cycle;Max_cycle;Signal;HPM_P1;HPM_P2
2024/03/08 00:01:06;;;;;;;0.30;0.20;;;8.90;99.90;;;;;;5084782;28;20208;-77
2024/03/08 00:03:32;;;;;;;0.30;0.20;;;8.90;99.90;;;;;;5084443;28;20329;-74
2024/03/08 00:05:58;;;;;;;0.30;0.20;;;9.00;99.90;;;;;;5084789;28;20192;-75
2024/03/08 00:08:24;;;;;;;0.30;0.20;;;9.00;99.90;;;;;;5084142;28;20495;-77
2024/03/08 00:10:50;;;;;;;0.30;0.20;;;9.00;99.90;;;;;;5084445;28;20172;-77
2024/03/08 00:13:16;;;;;;;0.30;0.20;;;9.00;99.90;;;;;;5086475;28;20719;-77
2024/03/08 00:15:41;;;;;;;0.30;0.20;;;8.90;99.90;;;;;;5087145;28;20177;-75
2024/03/08 00:18:07;;;;;;;0.30;0.20;;;8.90;99.90;;;;;;5087493;28;20285;-74
2024/03/08 00:20:33;;;;;;;0.30;0.20;;;8.90;99.90;;;;;;5087119;28;20575;-76
2024/03/08 00:22:59;;;;;;;0.30;0.20;;;9.00;99.90;;;;;;5086770;28;20742;-77
2024/03/08 00:25:24;;;;;;;0.30;0.20;;;9.00;99.90;;;;;;5086829;28;20401;-77
2024/03/08 00:27:51;;;;;;;0.30;0.20;;;9.00;99.90;;;;;;5088029;28;20197;-74
2024/03/08 00:30:17;;;;;;;0.30;0.20;;;9.00;99.90;;;;;;5086917;28;20187;-75
2024/03/08 00:32:42;;;;;;;0.87;0.87;;;9.00;99.90;;;;;;5086675;28;20204;-78
2024/03/08 00:35:08;;;;;;;0.30;0.20;;;9.00;99.90;;;;;;5087944;28;20334;-74
2024/03/08 00:37:36;;;;;;;0.30;0.20;;;9.00;99.90;;;;;;5087775;28;20200;-75
2024/03/08 00:40:03;;;;;;;0.30;0.20;;;9.00;99.90;;;;;;5086959;28;20204;-74
2024/03/08 00:42:28;;;;;;;0.30;0.20;;;9.00;99.90;;;;;;5087524;28;20215;-78
2024/03/08 00:44:54;;;;;;;0.30;0.20;;;9.00;99.90;;;;;;5088371;28;20168;-77
2024/03/08 00:47:20;;;;;;;0.30;0.30;;;9.00;99.90;;;;;;5087238;28;20391;-74
2024/03/08 00:49:46;;;;;;;1.60;1.50;;;9.00;99.90;;;;;;5088421;28;20547;-77
2024/03/08 00:52:11;;;;;;;0.30;0.20;;;9.00;99.90;;;;;;5086002;28;20843;-75
2024/03/08 00:54:37;;;;;;;0.40;0.40;;;9.00;99.90;;;;;;5088248;28;20188;-74
2024/03/08 00:57:04;;;;;;;13.13;12.73;;;9.00;99.90;;;;;;5087159;28;20172;-77
2024/03/08 00:59:33;;;;;;;0.40;0.30;;;9.00;99.90;;;;;;5087378;28;20199;-74
2024/03/08 01:02:02;;;;;;;1.67;1.58;;;9.00;99.90;;;;;;5087342;28;20243;-75
2024/03/08 01:04:31;;;;;;;0.30;0.30;;;9.00;99.90;;;;;;5087707;28;20291;-75
2024/03/08 01:06:57;;;;;;;0.30;0.20;;;9.00;99.90;;;;;;5087203;28;20201;-78
2024/03/08 01:09:23;;;;;;;0.30;0.20;;;9.00;99.90;;;;;;5087447;28;20745;-77
2024/03/08 01:11:50;;;;;;;1.42;1.33;;;9.00;99.90;;;;;;5087582;28;20743;-75
2024/03/08 01:14:16;;;;;;;1.75;1.75;;;9.00;99.90;;;;;;5087345;28;20664;-77
2024/03/08 01:16:42;;;;;;;0.30;0.20;;;9.00;99.90;;;;;;5085550;28;20222;-77
2024/03/08 01:19:08;;;;;;;0.30;0.20;;;9.00;99.90;;;;;;5086047;28;20657;-78
2024/03/08 01:21:34;;;;;;;0.30;0.20;;;9.00;99.90;;;;;;5085350;28;20215;-75
2024/03/08 01:24:00;;;;;;;0.30;0.30;;;9.00;99.90;;;;;;5087169;28;20193;-77
2024/03/08 01:26:26;;;;;;;0.30;0.20;;;9.00;99.90;;;;;;5085746;28;20173;-74
2024/03/08 01:28:51;;;;;;;0.30;0.20;;;9.00;99.90;;;;;;5085758;28;20205;-75
2024/03/08 01:31:17;;;;;;;4.50;4.20;;;9.00;99.90;;;;;;5087207;28;20175;-76
2024/03/08 01:33:43;;;;;;;0.30;0.20;;;9.00;99.90;;;;;;5086509;28;20196;-77
2024/03/08 01:36:08;;;;;;;0.87;0.87;;;9.00;99.90;;;;;;5086920;28;20177;-77
2024/03/08 01:38:34;;;;;;;0.40;0.30;;;9.00;99.90;;;;;;5087099;28;20656;-74
2024/03/08 01:41:00;;;;;;;0.30;0.20;;;9.00;99.90;;;;;;5087119;28;20206;-75
2024/03/08 01:43:28;;;;;;;0.30;0.20;;;9.00;99.90;;;;;;5086117;28;20253;-74
2024/03/08 01:46:01;;;;;;;0.30;0.30;;;9.00;99.90;;;;;;5085166;28;20173;-77
2024/03/08 01:48:29;;;;;;;0.30;0.20;;;9.00;99.90;;;;;;5086481;28;20196;-74
2024/03/08 01:50:55;;;;;;;0.30;0.20;;;9.00;99.90;;;;;;5085582;28;20176;-78
2024/03/08 01:53:22;;;;;;;0.30;0.20;;;9.00;99.90;;;;;;5086224;28;20521;-77
2024/03/08 01:55:49;;;;;;;0.30;0.20;;;9.00;99.90;;;;;;5086638;28;20165;-78
2024/03/08 01:58:16;;;;;;;0.30;0.20;;;9.00;99.90;;;;;;5086086;28;20201;-77
2024/03/08 02:00:45;;;;;;;3.42;2.50;;;9.00;99.90;;;;;;5086410;28;20215;-75
2024/03/08 02:03:11;;;;;;;0.30;0.20;;;8.90;99.90;;;;;;5085842;28;20794;-78
2024/03/08 02:05:40;;;;;;;0.50;0.50;;;9.00;99.90;;;;;;5084953;28;20368;-74
2024/03/08 02:08:14;;;;;;;0.30;0.30;;;9.00;99.90;;;;;;5084482;28;20678;-74
2024/03/08 02:10:44;;;;;;;0.30;0.20;;;9.00;99.90;;;;;;5086482;28;20168;-77
2024/03/08 02:13:11;;;;;;;23.13;21.67;;;9.00;99.90;;;;;;5084311;28;20244;-78
2024/03/08 02:15:56;;;;;;;0.30;0.20;;;9.00;99.90;;;;;;5086050;28;20165;-77
2024/03/08 02:18:23;;;;;;;0.30;0.20;;;8.90;99.90;;;;;;5085598;28;20229;-77
2024/03/08 02:20:56;;;;;;;0.30;0.20;;;8.90;99.90;;;;;;5085170;28;20206;-77
2024/03/08 02:23:22;;;;;;;0.30;0.20;;;8.90;99.90;;;;;;5085504;28;20239;-75
2024/03/08 02:25:49;;;;;;;0.40;0.40;;;8.90;99.90;;;;;;5084930;28;20692;-77
2024/03/08 02:28:15;;;;;;;4.03;1.55;;;8.90;99.90;;;;;;5085788;28;20284;-74
2024/03/08 02:30:41;;;;;;;0.30;0.20;;;8.90;99.90;;;;;;5086248;28;20176;-77
2024/03/08 02:33:09;;;;;;;0.30;0.20;;;8.90;99.90;;;;;;5085213;28;20204;-76
2024/03/08 02:35:35;;;;;;;0.30;0.20;;;8.90;99.90;;;;;;5084157;28;20655;-77
2024/03/08 02:38:04;;;;;;;0.40;0.40;;;8.90;99.90;;;;;;5085769;28;20673;-77
2024/03/08 02:40:30;;;;;;;0.30;0.20;;;8.90;99.90;;;;;;5085374;28;20704;-74
2024/03/08 02:42:56;;;;;;;0.30;0.20;;;8.80;99.90;;;;;;5085571;28;20200;-77
2024/03/08 02:45:21;;;;;;;0.30;0.20;;;8.90;99.90;;;;;;5085299;28;20436;-76
2024/03/08 02:47:50;;;;;;;0.30;0.20;;;8.80;99.90;;;;;;5085395;28;20219;-75
2024/03/08 02:50:16;;;;;;;0.30;0.28;;;8.80;99.90;;;;;;5085903;28;20263;-74
2024/03/08 02:52:42;;;;;;;0.30;0.20;;;8.80;99.90;;;;;;5085532;28;20677;-77
2024/03/08 02:55:10;;;;;;;0.30;0.20;;;8.80;99.90;;;;;;5085414;28;20211;-74
2024/03/08 02:57:36;;;;;;;0.30;0.20;;;8.80;99.90;;;;;;5084746;28;20242;-77
2024/03/08 03:00:03;;;;;;;0.30;0.20;;;8.80;99.90;;;;;;5085438;28;20212;-74
2024/03/08 03:02:29;;;;;;;2.15;2.05;;;8.80;99.90;;;;;;5083530;28;20200;-74
2024/03/08 03:04:55;;;;;;;0.30;0.20;;;8.80;99.90;;;;;;5084101;28;20595;-77
2024/03/08 03:07:21;;;;;;;0.45;0.45;;;8.80;99.90;;;;;;5083837;28;20214;-75
2024/03/08 03:09:47;;;;;;;0.30;0.20;;;8.70;99.90;;;;;;5083648;28;20312;-77
2024/03/08 03:12:13;;;;;;;0.30;0.20;;;8.70;99.90;;;;;;5083657;28;20253;-74
2024/03/08 03:14:39;;;;;;;0.52;0.52;;;8.60;99.90;;;;;;5085137;28;20235;-78
2024/03/08 03:17:05;;;;;;;0.30;0.20;;;8.70;99.90;;;;;;5084984;28;20575;-76
2024/03/08 03:19:31;;;;;;;0.30;0.20;;;8.60;99.90;;;;;;5083095;28;20249;-77
2024/03/08 03:21:57;;;;;;;0.30;0.20;;;8.60;99.90;;;;;;5083217;28;20212;-78
2024/03/08 03:24:23;;;;;;;0.30;0.20;;;8.60;99.90;;;;;;5085453;28;20606;-77
2024/03/08 03:26:49;;;;;;;0.30;0.20;;;8.50;99.90;;;;;;5083399;28;20176;-74
2024/03/08 03:29:16;;;;;;;0.30;0.20;;;8.50;99.90;;;;;;5083473;28;20734;-78
2024/03/08 03:31:42;;;;;;;0.30;0.20;;;8.50;99.90;;;;;;5083611;28;20624;-74
2024/03/08 03:34:08;;;;;;;0.30;0.20;;;8.50;99.90;;;;;;5085231;28;20239;-78
2024/03/08 03:36:35;;;;;;;0.30;0.20;;;8.40;99.90;;;;;;5084992;28;20411;-75
2024/03/08 03:39:12;;;;;;;2.95;1.65;;;8.40;99.90;;;;;;5085599;28;20200;-77
2024/03/08 03:41:38;;;;;;;0.30;0.20;;;8.40;99.90;;;;;;5084755;28;20207;-78
2024/03/08 03:44:06;;;;;;;0.30;0.20;;;8.40;99.90;;;;;;5083361;28;20291;-75
2024/03/08 03:46:32;;;;;;;0.30;0.20;;;8.40;99.90;;;;;;5088351;28;20529;-74
2024/03/08 03:48:58;;;;;;;0.30;0.20;;;8.30;99.90;;;;;;5089000;28;20200;-77
2024/03/08 03:51:24;;;;;;;0.30;0.20;;;8.30;99.90;;;;;;5088961;28;20168;-77
2024/03/08 03:53:50;;;;;;;0.30;0.20;;;8.20;99.90;;;;;;5087684;28;20901;-77
2024/03/08 03:56:15;;;;;;;0.30;0.20;;;8.30;99.90;;;;;;5088751;28;20255;-77
2024/03/08 03:58:42;;;;;;;4.27;4.07;;;8.30;99.90;;;;;;5088632;28;20286;-77
2024/03/08 04:01:09;;;;;;;0.30;0.20;;;8.30;99.90;;;;;;5088843;28;20196;-74
2024/03/08 04:03:35;;;;;;;0.30;0.20;;;8.30;99.90;;;;;;5088604;28;20192;-77
2024/03/08 04:06:01;;;;;;;0.30;0.20;;;8.30;99.90;;;;;;5088346;28;20196;-74
2024/03/08 04:08:27;;;;;;;0.30;0.20;;;8.30;99.90;;;;;;5086875;28;20287;-78
2024/03/08 04:10:53;;;;;;;0.30;0.20;;;8.30;99.90;;;;;;5088698;28;20418;-75
2024/03/08 04:13:20;;;;;;;0.30;0.20;;;8.20;99.90;;;;;;5086581;28;20431;-74
2024/03/08 04:15:48;;;;;;;0.30;0.20;;;8.20;99.90;;;;;;5088429;28;20282;-77
2024/03/08 04:18:14;;;;;;;0.30;0.20;;;8.10;99.90;;;;;;5088364;28;20399;-77
2024/03/08 04:20:40;;;;;;;0.30;0.20;;;8.10;99.90;;;;;;5087667;28;20209;-78
2024/03/08 04:23:06;;;;;;;0.30;0.20;;;8.10;99.90;;;;;;5087924;28;20787;-78
2024/03/08 04:25:32;;;;;;;0.30;0.20;;;8.00;99.90;;;;;;5088651;28;20177;-75
2024/03/08 04:27:57;;;;;;;0.30;0.20;;;8.10;99.90;;;;;;5087926;28;20538;-75
2024/03/08 04:30:24;;;;;;;0.40;0.40;;;8.10;99.90;;;;;;5088359;28;20441;-75
2024/03/08 04:32:49;;;;;;;0.30;0.20;;;8.10;99.90;;;;;;5086576;28;20569;-74
2024/03/08 04:35:15;;;;;;;0.30;0.20;;;8.20;99.90;;;;;;5086619;28;20347;-76
2024/03/08 04:37:41;;;;;;;0.30;0.30;;;8.20;99.90;;;;;;5087884;28;20654;-77
2024/03/08 04:40:07;;;;;;;0.30;0.20;;;8.30;99.90;;;;;;5086727;28;20472;-74
2024/03/08 04:42:34;;;;;;;0.30;0.20;;;8.30;99.90;;;;;;5086118;28;20251;-78
2024/03/08 04:45:00;;;;;;;0.30;0.20;;;8.40;99.90;;;;;;5087978;28;20169;-74
2024/03/08 04:47:25;;;;;;;1.43;1.43;;;8.50;99.90;;;;;;5087412;28;20376;-74
2024/03/08 04:49:51;;;;;;;0.30;0.20;;;8.50;99.90;;;;;;5086750;28;20652;-77
2024/03/08 04:52:17;;;;;;;0.50;0.50;;;8.50;99.90;;;;;;5086190;28;20176;-74
2024/03/08 04:54:44;;;;;;;0.30;0.20;;;8.50;99.90;;;;;;5087978;28;20263;-78
2024/03/08 04:57:10;;;;;;;0.30;0.20;;;8.50;99.90;;;;;;5086258;28;20168;-77
2024/03/08 04:59:36;;;;;;;0.30;0.20;;;8.50;99.90;;;;;;5085379;28;20183;-77
2024/03/08 05:02:02;;;;;;;0.30;0.20;;;8.60;99.90;;;;;;5080971;28;20208;-78
2024/03/08 05:04:28;;;;;;;0.30;0.20;;;8.60;99.90;;;;;;5087204;28;20509;-75
2024/03/08 05:06:54;;;;;;;0.30;0.20;;;8.60;99.90;;;;;;5086196;28;20642;-75
2024/03/08 05:09:20;;;;;;;0.30;0.20;;;8.60;99.90;;;;;;5085924;28;20218;-75
2024/03/08 05:11:47;;;;;;;0.30;0.20;;;8.60;99.90;;;;;;5085208;28;20571;-75
2024/03/08 05:14:16;;;;;;;0.30;0.20;;;8.70;99.90;;;;;;5085507;28;20461;-74
2024/03/08 05:16:49;;;;;;;0.88;0.88;;;8.70;99.90;;;;;;5085631;28;20349;-75
2024/03/08 05:19:19;;;;;;;0.30;0.20;;;8.70;99.90;;;;;;5085073;28;20192;-75
2024/03/08 05:21:45;;;;;;;1.20;1.20;;;8.80;99.90;;;;;;5084865;28;20287;-74
2024/03/08 05:24:11;;;;;;;0.30;0.20;;;8.70;99.90;;;;;;5081246;28;20204;-75
2024/03/08 05:26:39;;;;;;;0.30;0.20;;;8.70;99.90;;;;;;5079968;28;20172;-75
2024/03/08 05:29:05;;;;;;;0.30;0.20;;;8.70;99.90;;;;;;5084240;28;20460;-75
2024/03/08 05:31:42;;;;;;;0.30;0.20;;;8.60;99.90;;;;;;5079299;28;20245;-75
2024/03/08 05:34:09;;;;;;;0.30;0.20;;;8.60;99.90;;;;;;5085546;28;20368;-75
2024/03/08 05:36:35;;;;;;;0.30;0.20;;;8.50;99.90;;;;;;5083752;28;20168;-75
2024/03/08 05:39:01;;;;;;;0.30;0.20;;;8.40;99.90;;;;;;5083452;28;20208;-75
2024/03/08 05:41:28;;;;;;;0.30;0.20;;;8.30;99.90;;;;;;5086514;28;20207;-75
2024/03/08 05:43:53;;;;;;;0.30;0.20;;;8.20;99.90;;;;;;5084212;28;20212;-75
2024/03/08 05:46:19;;;;;;;0.30;0.20;;;8.10;99.90;;;;;;5083150;28;20676;-75
2024/03/08 05:48:45;;;;;;;0.30;0.20;;;8.10;99.90;;;;;;5084580;28;20261;-75
2024/03/08 05:51:12;;;;;;;0.30;0.20;;;8.10;99.90;;;;;;5068027;28;20200;-76
2024/03/08 05:53:37;;;;;;;0.30;0.20;;;8.10;99.90;;;;;;5086525;28;20517;-75
2024/03/08 05:56:03;;;;;;;0.30;0.20;;;8.00;99.90;;;;;;5084207;28;20187;-76
2024/03/08 05:58:31;;;;;;;0.30;0.20;;;8.00;99.90;;;;;;5080923;28;20215;-76
2024/03/08 06:00:57;;;;;;;0.30;0.20;;;8.00;99.90;;;;;;5081949;28;20523;-75
2024/03/08 06:03:23;;;;;;;0.30;0.20;;;7.90;99.90;;;;;;5083696;28;20232;-76
2024/03/08 06:05:49;;;;;;;12.67;11.93;;;7.90;99.90;;;;;;5078361;28;21122;-76
2024/03/08 06:08:15;;;;;;;0.43;0.40;;;7.80;99.90;;;;;;5080318;28;20696;-76
2024/03/08 06:10:41;;;;;;;0.30;0.20;;;7.80;99.90;;;;;;5072185;28;20185;-76
2024/03/08 06:13:07;;;;;;;0.30;0.20;;;7.80;99.90;;;;;;5071203;28;20342;-76
2024/03/08 06:15:32;;;;;;;0.30;0.20;;;7.80;99.90;;;;;;5087251;28;20180;-75
2024/03/08 06:17:58;;;;;;;0.30;0.20;;;7.80;99.90;;;;;;5079384;28;20208;-76
2024/03/08 06:20:26;;;;;;;1.47;1.10;;;7.70;99.90;;;;;;5081272;28;20291;-76
2024/03/08 06:22:52;;;;;;;0.30;0.20;;;7.70;99.90;;;;;;5084412;28;20219;-76
2024/03/08 06:25:18;;;;;;;0.32;0.25;;;7.70;99.90;;;;;;5077847;28;20223;-76
2024/03/08 06:27:45;;;;;;;0.30;0.20;;;7.70;99.90;;;;;;5081059;28;20600;-76
2024/03/08 06:30:11;;;;;;;2.25;2.15;;;7.70;99.90;;;;;;5085395;28;20429;-76
2024/03/08 06:32:38;;;;;;;0.30;0.20;;;7.70;99.90;;;;;;5083103;28;20199;-76
2024/03/08 06:35:07;;;;;;;0.30;0.20;;;7.70;99.90;;;;;;5082363;28;20208;-75
2024/03/08 06:37:33;;;;;;;0.30;0.20;;;7.70;99.90;;;;;;5084071;28;20353;-75
2024/03/08 06:40:00;;;;;;;0.35;0.22;;;7.70;99.90;;;;;;5082343;28;20184;-75
2024/03/08 06:42:29;;;;;;;0.30;0.20;;;7.70;99.90;;;;;;5084072;28;20204;-75
2024/03/08 06:44:59;;;;;;;1.42;1.35;;;7.80;99.90;;;;;;5080163;28;20264;-75
2024/03/08 06:47:25;;;;;;;0.30;0.20;;;7.70;99.90;;;;;;5081796;28;20780;-75
2024/03/08 06:49:51;;;;;;;1.33;1.33;;;7.70;99.90;;;;;;5083273;28;20219;-75
2024/03/08 06:52:17;;;;;;;0.30;0.20;;;7.80;99.90;;;;;;5080662;28;20427;-75
2024/03/08 06:54:43;;;;;;;0.60;0.60;;;7.80;99.90;;;;;;5075913;28;20340;-75
2024/03/08 06:57:10;;;;;;;0.30;0.20;;;7.80;99.90;;;;;;5077553;28;20181;-75
2024/03/08 06:59:36;;;;;;;0.30;0.20;;;7.80;99.90;;;;;;5074914;28;20209;-75
2024/03/08 07:02:03;;;;;;;0.30;0.20;;;7.80;99.90;;;;;;5072419;28;20730;-75
2024/03/08 07:04:29;;;;;;;0.30;0.20;;;7.80;99.90;;;;;;5075059;28;20204;-75
2024/03/08 07:06:58;;;;;;;0.50;0.30;;;7.80;99.90;;;;;;5072119;28;20846;-76
2024/03/08 07:09:24;;;;;;;0.30;0.20;;;7.80;99.90;;;;;;5075488;28;20513;-75
2024/03/08 07:11:54;;;;;;;0.30;0.20;;;7.90;99.90;;;;;;5079586;28;20188;-75
2024/03/08 07:14:24;;;;;;;0.30;0.20;;;7.90;99.90;;;;;;5078522;28;20694;-76
2024/03/08 07:16:51;;;;;;;0.30;0.20;;;7.80;99.90;;;;;;5076064;28;20188;-76
2024/03/08 07:19:19;;;;;;;0.30;0.20;;;7.90;99.90;;;;;;5075100;28;20220;-76
2024/03/08 07:21:44;;;;;;;0.30;0.20;;;7.90;99.90;;;;;;5078104;28;20216;-76
2024/03/08 07:26:49;;;;;;;0.30;0.20;;;7.90;99.90;;;;;;5080627;28;20223;-75
2024/03/08 07:29:15;;;;;;;0.30;0.20;;;7.80;99.90;;;;;;5082744;28;20673;-75
2024/03/08 07:34:07;;;;;;;0.30;0.20;;;7.80;99.90;;;;;;5081061;28;20677;-76
2024/03/08 07:36:34;;;;;;;0.30;0.20;;;7.90;99.90;;;;;;5081080;28;20180;-75
2024/03/08 07:39:00;;;;;;;0.90;0.90;;;7.90;99.90;;;;;;5080297;28;20375;-76
2024/03/08 07:41:26;;;;;;;0.30;0.20;;;7.80;99.90;;;;;;5082497;28;20279;-75
2024/03/08 07:43:52;;;;;;;0.30;0.20;;;7.80;99.90;;;;;;5081245;28;20459;-75
2024/03/08 07:46:20;;;;;;;0.30;0.20;;;7.80;99.90;;;;;;5077763;28;20707;-76
2024/03/08 07:48:46;;;;;;;0.30;0.20;;;7.90;99.90;;;;;;5072757;28;20205;-75
2024/03/08 07:51:12;;;;;;;0.30;0.30;;;7.90;99.90;;;;;;5075953;28;20222;-76
2024/03/08 07:53:38;;;;;;;0.30;0.20;;;8.00;99.90;;;;;;5071883;28;20197;-76
2024/03/08 07:56:09;;;;;;;0.30;0.30;;;8.00;99.90;;;;;;5072297;28;20218;-76
2024/03/08 07:58:35;;;;;;;0.30;0.20;;;7.90;99.90;;;;;;5071836;28;20220;-75
2024/03/08 08:01:00;;;;;;;0.30;0.20;;;7.90;99.90;;;;;;5069448;28;20267;-76
2024/03/08 08:03:27;;;;;;;0.30;0.20;;;7.90;99.90;;;;;;5071383;28;20200;-76
2024/03/08 08:05:53;;;;;;;0.30;0.20;;;7.90;99.90;;;;;;5071755;28;20697;-76
2024/03/08 08:08:19;;;;;;;0.32;0.20;;;7.90;99.90;;;;;;5074892;28;20741;-75
2024/03/08 08:10:44;;;;;;;0.30;0.20;;;7.80;99.90;;;;;;5077259;28;20188;-76
2024/03/08 08:13:10;;;;;;;0.30;0.20;;;7.90;99.90;;;;;;5074067;28;20709;-76
2024/03/08 08:15:36;;;;;;;0.30;0.20;;;7.90;99.90;;;;;;5058338;28;20173;-76
2024/03/08 08:18:05;;;;;;;0.30;0.20;;;7.90;99.90;;;;;;5062075;28;20293;-76
2024/03/08 08:20:31;;;;;;;0.30;0.20;;;7.90;99.90;;;;;;5074577;28;20212;-76
2024/03/08 08:22:58;;;;;;;0.30;0.20;;;7.90;99.90;;;;;;5070567;28;20254;-76
2024/03/08 08:25:24;;;;;;;0.30;0.20;;;8.00;99.90;;;;;;5072876;28;20188;-75
2024/03/08 08:27:50;;;;;;;0.30;0.20;;;7.90;99.90;;;;;;5062096;28;20208;-75
2024/03/08 08:30:16;;;;;;;0.30;0.20;;;7.90;99.90;;;;;;5073393;28;20267;-76
2024/03/08 08:32:42;;;;;;;0.30;0.20;;;7.90;99.90;;;;;;5064537;28;20219;-75
2024/03/08 08:35:09;;;;;;;0.30;0.20;;;7.80;99.90;;;;;;5078589;28;20426;-75
2024/03/08 08:37:37;;;;;;;0.30;0.20;;;7.90;99.90;;;;;;5082199;28;20211;-75
2024/03/08 08:40:09;;;;;;;0.30;0.20;;;7.90;99.90;;;;;;5083593;28;20218;-75
2024/03/08 08:42:35;;;;;;;0.30;0.20;;;8.00;99.90;;;;;;5080283;28;20249;-76
2024/03/08 08:45:01;;;;;;;0.30;0.20;;;8.10;99.90;;;;;;5078507;28;20176;-76
2024/03/08 08:47:27;;;;;;;0.30;0.20;;;8.10;99.90;;;;;;5081985;28;20346;-75
2024/03/08 08:49:54;;;;;;;1.13;1.13;;;8.10;99.90;;;;;;5077524;28;20971;-78
2024/03/08 08:52:19;;;;;;;0.30;0.20;;;8.10;99.90;;;;;;5084613;28;20183;-74
2024/03/08 08:54:45;;;;;;;0.30;0.20;;;8.00;99.90;;;;;;5083532;28;20184;-75
2024/03/08 08:57:11;;;;;;;0.30;0.20;;;8.00;99.90;;;;;;5081419;28;20313;-75
2024/03/08 08:59:39;;;;;;;0.30;0.20;;;8.00;99.90;;;;;;5065914;28;20311;-75
2024/03/08 09:02:06;;;;;;;14.88;13.52;;;8.00;99.90;;;;;;5083114;28;20208;-75
2024/03/08 09:04:31;;;;;;;0.30;0.20;;;8.00;99.90;;;;;;5078830;28;20205;-75
2024/03/08 09:06:57;;;;;;;0.30;0.20;;;7.90;99.90;;;;;;5076003;28;20210;-76
2024/03/08 09:09:23;;;;;;;0.30;0.20;;;8.00;99.90;;;;;;5074054;28;20205;-76
2024/03/08 09:11:49;;;;;;;0.30;0.20;;;8.00;99.90;;;;;;5081285;28;20172;-74
2024/03/08 09:14:15;;;;;;;0.30;0.20;;;8.00;99.90;;;;;;5083623;28;20732;-76
2024/03/08 09:16:41;;;;;;;0.30;0.20;;;8.00;99.90;;;;;;5082413;28;20196;-75
2024/03/08 09:19:07;;;;;;;0.30;0.20;;;8.00;99.90;;;;;;5084909;28;20212;-76
2024/03/08 09:21:34;;;;;;;0.30;0.20;;;8.00;99.90;;;;;;5082855;28;20568;-80
2024/03/08 09:24:01;;;;;;;0.30;0.20;;;8.10;99.90;;;;;;5081436;28;20516;-80
2024/03/08 09:26:26;;;;;;;0.30;0.20;;;8.10;99.90;;;;;;5075007;28;20590;-75
2024/03/08 09:28:54;;;;;;;0.30;0.20;;;8.20;99.90;;;;;;5084289;28;20250;-76
2024/03/08 09:31:20;;;;;;;0.30;0.20;;;8.20;99.90;;;;;;5077830;28;20279;-80
2024/03/08 09:33:46;;;;;;;4.78;4.43;;;8.20;99.90;;;;;;5078655;28;20318;-80
2024/03/08 09:36:13;;;;;;;0.30;0.20;;;8.20;99.90;;;;;;5076197;28;20209;-79
2024/03/08 09:38:39;;;;;;;0.38;0.38;;;8.20;99.90;;;;;;5079442;28;20945;-80
2024/03/08 09:41:06;;;;;;;0.30;0.20;;;8.20;99.90;;;;;;5082178;28;20224;-76
2024/03/08 09:43:32;;;;;;;0.30;0.20;;;8.20;99.90;;;;;;5079700;28;20235;-79
2024/03/08 09:45:58;;;;;;;0.40;0.20;;;8.20;99.90;;;;;;5092991;28;20223;-80
2024/03/08 09:48:26;;;;;;;0.33;0.33;;;8.20;99.90;;;;;;5076749;28;20672;-79
2024/03/08 09:50:52;;;;;;;0.93;0.93;;;8.20;99.90;;;;;;5083564;28;20428;-77
2024/03/08 09:53:17;;;;;;;1.98;1.95;;;8.20;99.90;;;;;;5076504;28;20208;-80
2024/03/08 09:55:45;;;;;;;0.30;0.20;;;8.10;99.90;;;;;;5079645;28;20221;-80
2024/03/08 10:00:54;;;;;;;0.30;0.20;;;8.10;99.90;;;;;;5076089;28;20220;-80
2024/03/08 10:03:20;;;;;;;0.30;0.20;;;8.20;99.90;;;;;;5078100;28;20212;-80
2024/03/08 10:05:46;;;;;;;0.35;0.35;;;8.10;99.90;;;;;;5082308;28;20180;-78
2024/03/08 10:08:13;;;;;;;0.30;0.20;;;8.00;99.90;;;;;;5081976;28;20208;-77
2024/03/08 10:10:39;;;;;;;0.30;0.20;;;7.90;99.90;;;;;;5082333;28;20226;-76
2024/03/08 10:13:07;;;;;;;0.30;0.20;;;7.80;99.90;;;;;;5081738;28;20266;-77
2024/03/08 10:15:35;;;;;;;1.77;1.67;;;7.80;99.90;;;;;;5079979;28;20267;-79
2024/03/08 10:18:04;;;;;;;0.30;0.20;;;7.80;99.90;;;;;;5081671;28;20228;-78
2024/03/08 10:20:33;;;;;;;0.30;0.20;;;7.90;99.90;;;;;;5080294;28;20260;-78
2024/03/08 10:23:00;;;;;;;0.30;0.20;;;7.90;99.90;;;;;;5078865;28;20208;-75
2024/03/08 10:25:26;;;;;;;0.30;0.20;;;8.00;99.90;;;;;;5076881;28;20808;-74
2024/03/08 10:27:52;;;;;;;0.97;0.97;;;7.90;99.90;;;;;;5082310;28;20277;-84
2024/03/08 10:30:21;;;;;;;0.30;0.30;;;8.00;99.90;;;;;;5076323;28;20429;-80
2024/03/08 10:32:47;;;;;;;0.30;0.20;;;8.00;99.90;;;;;;5070814;28;20240;-83
2024/03/08 10:35:14;;;;;;;0.30;0.20;;;8.10;99.90;;;;;;5069083;28;20238;-79
2024/03/08 10:37:58;;;;;;;0.30;0.20;;;8.10;99.90;;;;;;5073054;28;20211;-75
2024/03/08 10:40:25;;;;;;;0.30;0.20;;;8.10;99.90;;;;;;5080091;28;20216;-74
2024/03/08 10:42:51;;;;;;;0.30;0.30;;;8.10;99.90;;;;;;5079480;28;20200;-82
2024/03/08 10:45:24;;;;;;;0.30;0.20;;;8.10;99.90;;;;;;5077726;28;20650;-74
2024/03/08 10:48:04;;;;;;;0.30;0.20;;;8.10;99.90;;;;;;5083423;28;20261;-80
2024/03/08 10:50:34;;;;;;;0.30;0.20;;;8.10;99.90;;;;;;5080928;28;20263;-76
2024/03/08 10:53:01;;;;;;;0.30;0.20;;;8.00;99.90;;;;;;5079160;28;20201;-75
2024/03/08 10:55:28;;;;;;;0.30;0.20;;;8.00;99.90;;;;;;5077174;28;20698;-80
2024/03/08 10:57:54;;;;;;;0.30;0.20;;;8.00;99.90;;;;;;5078971;28;20222;-75
2024/03/08 11:00:26;;;;;;;0.30;0.20;;;8.00;99.90;;;;;;5080681;28;20275;-81
2024/03/08 11:02:56;;;;;;;0.30;0.20;;;8.10;99.90;;;;;;5081974;28;20871;-82
2024/03/08 11:05:39;;;;;;;0.30;0.20;;;8.10;99.90;;;;;;5074757;28;20220;-81
2024/03/08 11:08:21;;;;;;;0.30;0.20;;;8.10;99.90;;;;;;5051670;28;20207;-75
2024/03/08 11:10:53;;;;;;;0.30;0.20;;;8.10;99.90;;;;;;5061339;28;20176;-75
2024/03/08 11:13:36;;;;;;;0.93;0.93;;;8.20;99.90;;;;;;5069171;28;20301;-75
2024/03/08 11:16:10;;;;;;;0.30;0.20;;;8.20;99.90;;;;;;5078255;28;20279;-75
2024/03/08 11:18:37;;;;;;;0.30;0.20;;;8.30;99.90;;;;;;5078183;28;20204;-75
2024/03/08 11:21:06;;;;;;;0.30;0.20;;;8.30;99.90;;;;;;5075473;28;20208;-76
2024/03/08 11:23:33;;;;;;;0.30;0.20;;;8.30;99.90;;;;;;5076338;28;20208;-81
2024/03/08 11:25:59;;;;;;;0.30;0.20;;;8.20;99.90;;;;;;5078338;28;20176;-82
2024/03/08 11:28:26;;;;;;;0.30;0.20;;;8.20;99.90;;;;;;5078161;28;20222;-82
2024/03/08 11:31:01;;;;;;;0.45;0.45;;;8.20;99.90;;;;;;5072766;28;20249;-76
2024/03/08 11:33:29;;;;;;;0.30;0.30;;;8.30;99.90;;;;;;5073057;28;20409;-81
2024/03/08 11:36:21;;;;;;;1.25;1.23;;;8.30;99.90;;;;;;5075651;28;20187;-81
2024/03/08 11:38:48;;;;;;;0.30;0.20;;;8.30;99.90;;;;;;5077115;28;20227;-75
2024/03/08 11:41:17;;;;;;;0.43;0.43;;;8.40;99.90;;;;;;5081252;28;20214;-81
2024/03/08 11:43:44;;;;;;;0.30;0.20;;;8.40;99.90;;;;;;5079061;28;20261;-75
2024/03/08 11:46:14;;;;;;;0.75;0.75;;;8.40;99.90;;;;;;5082236;28;20180;-75
2024/03/08 11:48:43;;;;;;;0.30;0.20;;;8.40;99.90;;;;;;5079750;28;20730;-81
2024/03/08 11:51:13;;;;;;;0.30;0.20;;;8.40;99.90;;;;;;5064648;28;20223;-82
2024/03/08 11:53:40;;;;;;;0.30;0.20;;;8.50;99.90;;;;;;5073740;28;20212;-81
2024/03/08 11:56:11;;;;;;;0.60;0.60;;;8.50;99.90;;;;;;5079423;28;20180;-82
2024/03/08 11:58:38;;;;;;;0.30;0.20;;;8.60;99.90;;;;;;5076851;28;20201;-75
2024/03/08 12:01:16;;;;;;;0.57;0.57;;;8.70;99.90;;;;;;5079115;28;20209;-75
2024/03/08 12:03:43;;;;;;;0.30;0.20;;;8.70;99.90;;;;;;5081099;28;20207;-82
2024/03/08 12:06:13;;;;;;;0.30;0.20;;;8.70;99.90;;;;;;5075775;28;20192;-75
2024/03/08 12:08:39;;;;;;;0.30;0.20;;;8.70;99.90;;;;;;5085537;28;20204;-79
2024/03/08 12:11:12;;;;;;;0.30;0.30;;;8.70;99.90;;;;;;5081083;28;20265;-76
2024/03/08 12:13:39;;;;;;;1.15;1.05;;;8.60;99.90;;;;;;5072532;28;20263;-78
2024/03/08 12:16:05;;;;;;;0.30;0.20;;;8.70;99.90;;;;;;5070983;28;20197;-80
2024/03/08 12:18:38;;;;;;;0.30;0.20;;;8.70;99.90;;;;;;5070876;28;20724;-78
2024/03/08 12:21:07;;;;;;;0.30;0.20;;;8.70;99.90;;;;;;5074233;28;20529;-79
2024/03/08 12:23:36;;;;;;;0.30;0.20;;;8.70;99.90;;;;;;5078861;28;20200;-76
2024/03/08 12:26:16;;;;;;;0.60;0.60;;;8.80;99.90;;;;;;5066955;28;20209;-79
2024/03/08 12:28:44;;;;;;;0.30;0.20;;;8.90;99.90;;;;;;5068342;28;20213;-78
2024/03/08 12:31:12;;;;;;;0.30;0.20;;;8.90;99.90;;;;;;5073942;28;20172;-79
2024/03/08 12:33:50;;;;;;;0.30;0.20;;;8.90;99.90;;;;;;5074605;28;20192;-76
2024/03/08 12:36:17;;;;;;;0.30;0.20;;;8.90;99.90;;;;;;5073415;28;20593;-79
2024/03/08 12:38:47;;;;;;;0.30;0.20;;;9.00;99.90;;;;;;5062530;28;20564;-76
2024/03/08 12:41:14;;;;;;;0.30;0.20;;;9.00;99.90;;;;;;5074836;28;20216;-78
2024/03/08 12:43:40;;;;;;;0.30;0.20;;;9.00;99.90;;;;;;5068967;28;20201;-80
2024/03/08 12:46:05;;;;;;;0.30;0.20;;;9.00;99.90;;;;;;5073188;28;20184;-78
2024/03/08 12:48:40;;;;;;;0.30;0.20;;;9.10;99.90;;;;;;5068002;28;20209;-78
2024/03/08 12:51:10;;;;;;;0.30;0.20;;;9.10;99.90;;;;;;5069274;28;20566;-77
2024/03/08 12:53:35;;;;;;;0.80;0.77;;;9.20;99.90;;;;;;5066815;28;20283;-77
2024/03/08 12:56:03;;;;;;;0.30;0.20;;;9.20;99.90;;;;;;5064838;28;20492;-77
2024/03/08 12:58:29;;;;;;;0.30;0.20;;;9.20;99.90;;;;;;5067131;28;20201;-77
2024/03/08 13:00:55;;;;;;;0.30;0.20;;;9.30;99.90;;;;;;5067861;28;20222;-77
2024/03/08 13:03:22;;;;;;;0.50;0.47;;;9.50;99.90;;;;;;5069332;28;21712;-77
2024/03/08 13:05:49;;;;;;;0.30;0.20;;;9.60;99.90;;;;;;5069742;28;20177;-75